Time;durP1;ratioP1;P1;durP2;ratioP2;P2;SDS_P1;SDS_P2;PMS_P1;PMS_P2;Temp;Humidity;BMP_temperature;BMP_pressure;BME280_temperature;BME280_humidity;BME280_pressure;Samples;Min_cycle;Max_cycle;Signal;HPM_P1;HPM_P2
2022/01/31 00:00:57;;;;;;;29.90;6.30;;;3.20;99.90;;;;;;5082700;28;20254;-80
2022/01/31 00:03:25;;;;;;;24.07;5.47;;;3.20;99.90;;;;;;5081907;28;20230;-80
2022/01/31 00:05:52;;;;;;;30.07;5.33;;;3.30;99.90;;;;;;5082714;28;20361;-79
2022/01/31 00:08:23;;;;;;;26.80;5.67;;;3.20;99.90;;;;;;5078462;28;21784;-79
2022/01/31 00:10:51;;;;;;;29.97;7.00;;;3.20;99.90;;;;;;5077957;28;20929;-80
2022/01/31 00:13:21;;;;;;;29.13;6.50;;;3.20;99.90;;;;;;5081192;28;20230;-80
2022/01/31 00:15:54;;;;;;;35.40;6.40;;;3.20;99.90;;;;;;5082504;28;20276;-80
2022/01/31 00:18:21;;;;;;;27.27;5.13;;;3.20;99.90;;;;;;5082442;28;20223;-79
2022/01/31 00:20:49;;;;;;;25.47;5.37;;;3.20;99.90;;;;;;5080776;28;20607;-79
2022/01/31 00:23:16;;;;;;;26.47;5.13;;;3.20;99.90;;;;;;5081243;28;21282;-79
2022/01/31 00:25:42;;;;;;;26.33;6.17;;;3.20;99.90;;;;;;5084591;28;20226;-79
2022/01/31 00:28:09;;;;;;;27.03;6.27;;;3.20;99.90;;;;;;5082322;28;20815;-79
2022/01/31 00:30:36;;;;;;;23.73;5.37;;;3.30;99.90;;;;;;5081493;28;20323;-80
2022/01/31 00:33:03;;;;;;;31.87;5.63;;;3.20;99.90;;;;;;5079260;28;20341;-79
2022/01/31 00:35:30;;;;;;;26.37;5.33;;;3.20;99.90;;;;;;5077950;28;20946;-79
2022/01/31 00:37:58;;;;;;;28.77;6.27;;;3.20;99.90;;;;;;5078570;28;20308;-79
2022/01/31 00:40:25;;;;;;;23.77;5.37;;;3.20;99.90;;;;;;5075708;28;20231;-79
2022/01/31 00:42:52;;;;;;;26.93;6.57;;;3.20;99.90;;;;;;5083703;28;20222;-78
2022/01/31 00:45:24;;;;;;;30.87;7.13;;;3.20;99.90;;;;;;5080155;28;20799;-79
2022/01/31 00:48:00;;;;;;;26.37;5.70;;;3.20;99.90;;;;;;5079225;28;20730;-81
2022/01/31 00:50:27;;;;;;;27.30;6.33;;;3.20;99.90;;;;;;5080105;28;20923;-81
2022/01/31 00:52:55;;;;;;;28.10;6.70;;;3.10;99.90;;;;;;5077907;28;20234;-82
2022/01/31 00:55:23;;;;;;;24.20;5.77;;;3.10;99.80;;;;;;5076774;28;20230;-82
2022/01/31 00:57:50;;;;;;;33.63;7.47;;;3.10;99.90;;;;;;5074628;28;20226;-82
2022/01/31 01:00:17;;;;;;;28.67;5.90;;;3.10;99.80;;;;;;5077753;28;20231;-82
2022/01/31 01:02:45;;;;;;;37.10;5.87;;;3.00;99.90;;;;;;5083645;28;20230;-82
2022/01/31 01:05:13;;;;;;;23.00;6.17;;;3.00;99.80;;;;;;5077550;28;20294;-81
2022/01/31 01:07:40;;;;;;;21.07;5.03;;;3.00;99.90;;;;;;5082147;28;20237;-82
2022/01/31 01:10:07;;;;;;;22.90;6.43;;;2.90;99.70;;;;;;5082226;28;20250;-81
2022/01/31 01:12:35;;;;;;;23.73;5.37;;;2.90;99.80;;;;;;5079239;28;20324;-82
2022/01/31 01:15:02;;;;;;;27.73;5.47;;;2.90;99.80;;;;;;5078646;28;20224;-82
2022/01/31 01:17:29;;;;;;;33.13;6.63;;;2.90;99.80;;;;;;5080139;28;20321;-82
2022/01/31 01:19:55;;;;;;;26.77;5.93;;;2.90;99.90;;;;;;5082329;28;20256;-82
2022/01/31 01:22:22;;;;;;;27.50;5.40;;;2.90;99.80;;;;;;5082059;28;20217;-82
2022/01/31 01:24:49;;;;;;;26.73;5.93;;;2.90;99.80;;;;;;5078131;28;20249;-82
2022/01/31 01:27:19;;;;;;;27.77;5.87;;;2.90;99.90;;;;;;5085547;28;20241;-81
2022/01/31 01:29:48;;;;;;;21.20;5.53;;;2.80;99.80;;;;;;5078494;28;20302;-81
2022/01/31 01:32:17;;;;;;;28.20;5.70;;;2.80;99.80;;;;;;5077789;28;20297;-82
2022/01/31 01:34:45;;;;;;;27.60;5.53;;;2.80;99.80;;;;;;5086027;27;21031;-81
2022/01/31 01:37:12;;;;;;;18.47;4.87;;;2.80;99.80;;;;;;5085176;28;20242;-82
2022/01/31 01:39:38;;;;;;;24.70;5.43;;;2.80;99.70;;;;;;5079616;28;20599;-82
2022/01/31 01:42:06;;;;;;;31.53;5.83;;;2.80;99.80;;;;;;5084926;28;20250;-82
2022/01/31 01:44:40;;;;;;;29.07;6.97;;;2.80;99.70;;;;;;5082292;28;20234;-82
2022/01/31 01:47:08;;;;;;;26.50;5.33;;;2.80;99.80;;;;;;5080596;28;20228;-82
2022/01/31 01:49:35;;;;;;;23.73;4.87;;;2.70;99.80;;;;;;5079710;28;20327;-83
2022/01/31 01:52:03;;;;;;;26.80;5.30;;;2.70;99.70;;;;;;5080847;28;20602;-82
2022/01/31 01:54:30;;;;;;;31.93;5.60;;;2.70;99.80;;;;;;5081448;28;20867;-81
2022/01/31 01:56:58;;;;;;;23.03;4.73;;;2.60;99.70;;;;;;5080232;28;20226;-82
2022/01/31 01:59:25;;;;;;;31.90;6.37;;;2.60;99.70;;;;;;5082497;28;20226;-82
2022/01/31 02:02:11;;;;;;;23.93;5.17;;;2.60;99.80;;;;;;5080320;28;20238;-82
2022/01/31 02:04:40;;;;;;;25.90;5.30;;;2.60;99.80;;;;;;5080278;28;20226;-83
2022/01/31 02:07:15;;;;;;;22.50;5.80;;;2.60;99.80;;;;;;5083309;28;20247;-83
2022/01/31 02:09:45;;;;;;;23.10;5.60;;;2.50;99.80;;;;;;5085341;28;20230;-82
2022/01/31 02:12:12;;;;;;;25.60;5.30;;;2.50;99.80;;;;;;5085183;28;20259;-83
2022/01/31 02:14:41;;;;;;;31.07;6.47;;;2.40;99.90;;;;;;5079148;28;20609;-82
2022/01/31 02:17:39;;;;;;;23.47;5.80;;;2.40;99.90;;;;;;5087201;28;20288;-82
2022/01/31 02:20:12;;;;;;;27.53;5.37;;;2.40;99.90;;;;;;5080100;28;20235;-83
2022/01/31 02:22:41;;;;;;;26.17;5.37;;;2.40;99.90;;;;;;5083783;28;20750;-83
2022/01/31 02:25:27;;;;;;;26.20;5.40;;;2.40;99.90;;;;;;5078170;28;20575;-82
2022/01/31 02:28:35;;;;;;;29.50;5.53;;;2.40;99.90;;;;;;5082260;28;20244;-84
2022/01/31 02:31:03;;;;;;;23.03;5.20;;;2.40;99.90;;;;;;5080488;28;21033;-81
2022/01/31 02:33:30;;;;;;;21.83;5.73;;;2.40;99.90;;;;;;5085414;28;20226;-83
2022/01/31 02:35:59;;;;;;;31.17;5.80;;;2.40;99.90;;;;;;5084077;28;20253;-83
2022/01/31 02:38:30;;;;;;;30.00;5.60;;;2.40;99.90;;;;;;5078122;28;20223;-82
2022/01/31 02:40:57;;;;;;;30.27;5.40;;;2.40;99.90;;;;;;5085450;28;20233;-82
2022/01/31 02:43:25;;;;;;;33.50;6.30;;;2.40;99.90;;;;;;5083057;28;20230;-82
2022/01/31 02:45:52;;;;;;;28.80;5.80;;;2.40;99.90;;;;;;5087073;28;20226;-83
2022/01/31 02:48:23;;;;;;;26.47;5.87;;;2.40;99.90;;;;;;5085821;28;20238;-82
2022/01/31 02:50:51;;;;;;;29.47;6.10;;;2.40;99.90;;;;;;5087796;28;20230;-82
2022/01/31 02:53:24;;;;;;;21.97;5.27;;;2.40;99.90;;;;;;5082561;28;20230;-82
2022/01/31 02:55:54;;;;;;;20.70;4.80;;;2.40;99.90;;;;;;5088056;28;20231;-83
2022/01/31 02:58:22;;;;;;;27.10;5.30;;;2.40;99.90;;;;;;5080809;28;20219;-81
2022/01/31 03:00:51;;;;;;;29.67;5.63;;;2.40;99.90;;;;;;5083115;28;20222;-81
2022/01/31 03:03:47;;;;;;;28.20;5.57;;;2.40;99.90;;;;;;5060513;28;20227;-82
2022/01/31 03:06:13;;;;;;;30.70;5.20;;;2.40;99.90;;;;;;5081854;28;20306;-81
2022/01/31 03:08:40;;;;;;;28.67;5.90;;;2.50;99.90;;;;;;5084655;28;20327;-81
2022/01/31 03:11:20;;;;;;;24.00;5.60;;;2.50;99.90;;;;;;5078178;28;20692;-82
2022/01/31 03:14:04;;;;;;;25.20;5.47;;;2.50;99.90;;;;;;5080889;28;20572;-82
2022/01/31 03:16:33;;;;;;;26.20;6.03;;;2.50;99.90;;;;;;5083834;28;20245;-84
2022/01/31 03:19:21;;;;;;;27.20;5.40;;;2.50;99.90;;;;;;5081339;28;20234;-84
2022/01/31 03:21:55;;;;;;;32.07;6.17;;;2.50;99.90;;;;;;5081240;28;20300;-84
2022/01/31 03:24:22;;;;;;;25.20;5.27;;;2.50;99.90;;;;;;5079238;28;20254;-83
2022/01/31 03:26:50;;;;;;;23.13;5.00;;;2.50;99.90;;;;;;5083342;28;20225;-83
2022/01/31 03:29:18;;;;;;;25.97;5.63;;;2.50;99.90;;;;;;5075512;28;20249;-84
2022/01/31 03:31:44;;;;;;;24.70;5.93;;;2.50;99.90;;;;;;5084839;28;20307;-84
2022/01/31 03:34:11;;;;;;;28.47;5.63;;;2.40;99.90;;;;;;5082076;28;20237;-83
2022/01/31 03:36:38;;;;;;;25.17;5.23;;;2.40;99.90;;;;;;5084731;28;20279;-84
2022/01/31 03:39:08;;;;;;;27.43;5.90;;;2.40;99.90;;;;;;5083966;28;20227;-83
2022/01/31 03:41:35;;;;;;;25.07;5.30;;;2.30;99.90;;;;;;5082487;28;20219;-82
2022/01/31 03:44:04;;;;;;;24.23;5.80;;;2.30;99.90;;;;;;5080601;28;20242;-81
2022/01/31 03:46:34;;;;;;;20.30;4.93;;;2.30;99.90;;;;;;5083490;28;20789;-81
2022/01/31 03:49:01;;;;;;;35.37;6.40;;;2.30;99.90;;;;;;5083156;28;20223;-81
2022/01/31 03:51:38;;;;;;;20.10;5.57;;;2.20;99.90;;;;;;5085260;28;20242;-81
2022/01/31 03:54:06;;;;;;;26.17;5.53;;;2.20;99.90;;;;;;5079476;28;20230;-83
2022/01/31 03:56:33;;;;;;;27.33;5.50;;;2.20;99.90;;;;;;5082020;28;20215;-83
2022/01/31 03:59:39;;;;;;;32.97;5.47;;;2.10;99.90;;;;;;5059152;28;20228;-83
2022/01/31 04:02:07;;;;;;;26.80;5.07;;;2.10;99.90;;;;;;5081482;28;20249;-82
2022/01/31 04:04:34;;;;;;;27.33;5.60;;;2.10;99.90;;;;;;5081606;28;20241;-82
2022/01/31 04:07:01;;;;;;;27.60;5.33;;;2.10;99.90;;;;;;5080582;28;20230;-81
2022/01/31 04:09:28;;;;;;;30.20;5.43;;;2.00;99.90;;;;;;5079663;28;20330;-81
2022/01/31 04:11:55;;;;;;;25.33;4.77;;;2.00;99.90;;;;;;5076074;28;20234;-81
2022/01/31 04:14:25;;;;;;;18.73;5.20;;;2.00;99.90;;;;;;5080814;28;20233;-81
2022/01/31 04:16:55;;;;;;;24.60;5.50;;;2.00;99.90;;;;;;5085191;28;20223;-81
2022/01/31 04:19:23;;;;;;;19.73;5.10;;;2.00;99.90;;;;;;5084043;28;20231;-82
2022/01/31 04:21:49;;;;;;;18.80;4.53;;;2.00;99.90;;;;;;5086073;28;20284;-80
2022/01/31 04:24:21;;;;;;;17.80;4.70;;;2.00;99.90;;;;;;5079505;28;20238;-79
2022/01/31 04:26:57;;;;;;;23.73;4.07;;;2.00;99.90;;;;;;5082558;28;20322;-80
2022/01/31 04:29:25;;;;;;;18.17;4.53;;;1.90;99.90;;;;;;5080443;28;20226;-80
2022/01/31 04:31:54;;;;;;;14.23;3.47;;;2.00;99.90;;;;;;5083280;28;20234;-79
2022/01/31 04:34:21;;;;;;;20.43;4.90;;;2.00;99.90;;;;;;5076582;28;20241;-79
2022/01/31 04:36:48;;;;;;;19.53;4.37;;;1.90;99.90;;;;;;5085189;28;20323;-80
2022/01/31 04:39:18;;;;;;;19.97;4.67;;;1.90;99.90;;;;;;5086752;28;20264;-80
2022/01/31 04:41:45;;;;;;;20.83;5.23;;;1.90;99.90;;;;;;5084566;28;20233;-80
2022/01/31 04:44:12;;;;;;;20.07;4.43;;;1.90;99.90;;;;;;5075176;28;20317;-80
2022/01/31 04:46:40;;;;;;;19.93;4.60;;;1.90;99.90;;;;;;5080774;28;20246;-80
2022/01/31 04:49:08;;;;;;;18.83;4.37;;;1.90;99.90;;;;;;5083613;28;20230;-80
2022/01/31 04:51:35;;;;;;;20.23;4.93;;;1.90;99.90;;;;;;5081622;28;20682;-80
2022/01/31 04:54:01;;;;;;;22.17;4.73;;;1.90;99.90;;;;;;5072441;28;20589;-80
2022/01/31 04:56:28;;;;;;;20.73;4.70;;;1.90;99.90;;;;;;5075974;28;20277;-81
2022/01/31 04:58:55;;;;;;;25.40;4.30;;;1.90;99.90;;;;;;5081102;28;21001;-80
2022/01/31 05:01:23;;;;;;;23.23;4.80;;;1.90;99.90;;;;;;5080300;28;20218;-79
2022/01/31 05:03:50;;;;;;;24.57;5.07;;;1.90;99.90;;;;;;5080537;28;20362;-80
2022/01/31 05:06:25;;;;;;;19.00;4.57;;;1.90;99.90;;;;;;5081519;28;20236;-80
2022/01/31 05:08:52;;;;;;;21.40;5.33;;;1.90;99.90;;;;;;5080504;28;20294;-80
2022/01/31 05:11:18;;;;;;;18.83;5.17;;;1.90;99.90;;;;;;5079803;28;20245;-81
2022/01/31 05:13:46;;;;;;;27.83;5.87;;;1.90;99.90;;;;;;5082748;28;20506;-81
2022/01/31 05:16:13;;;;;;;25.23;4.40;;;1.90;99.90;;;;;;5079731;28;20234;-81
2022/01/31 05:18:39;;;;;;;21.53;4.43;;;1.90;99.90;;;;;;5077174;28;20330;-81
2022/01/31 05:21:08;;;;;;;19.97;4.43;;;1.90;99.90;;;;;;5078170;28;20233;-81
2022/01/31 05:23:36;;;;;;;18.70;4.50;;;1.90;99.90;;;;;;5079659;28;20226;-82
2022/01/31 05:26:04;;;;;;;23.00;5.37;;;1.90;99.90;;;;;;5085006;28;20326;-80
2022/01/31 05:28:30;;;;;;;24.43;4.77;;;1.90;99.90;;;;;;5079508;28;20305;-81
2022/01/31 05:30:57;;;;;;;22.73;5.13;;;1.90;99.90;;;;;;5083638;28;20230;-81
2022/01/31 05:33:24;;;;;;;18.40;4.00;;;1.90;99.90;;;;;;5079515;28;20225;-81
2022/01/31 05:35:52;;;;;;;23.87;5.03;;;1.90;99.90;;;;;;5081881;28;20222;-81
2022/01/31 05:38:19;;;;;;;20.70;4.63;;;1.90;99.90;;;;;;5080116;28;20625;-80
2022/01/31 05:40:47;;;;;;;26.07;4.97;;;1.90;99.90;;;;;;5078010;28;20228;-80
2022/01/31 05:43:13;;;;;;;31.37;5.40;;;1.90;99.90;;;;;;5081896;28;20223;-82
2022/01/31 05:45:40;;;;;;;16.10;4.47;;;1.90;99.90;;;;;;5084026;28;20739;-82
2022/01/31 05:48:07;;;;;;;18.93;4.90;;;1.80;99.90;;;;;;5086485;28;21075;-83
2022/01/31 05:50:33;;;;;;;27.37;5.20;;;1.80;99.90;;;;;;5085480;28;20215;-83
2022/01/31 05:53:00;;;;;;;20.37;5.00;;;1.80;99.90;;;;;;5075720;28;20218;-81
2022/01/31 05:55:27;;;;;;;26.40;6.37;;;1.80;99.90;;;;;;5083373;28;20233;-80
2022/01/31 05:57:55;;;;;;;25.93;5.50;;;1.80;99.90;;;;;;5083940;28;20719;-80
2022/01/31 06:00:22;;;;;;;25.67;5.43;;;1.80;99.90;;;;;;5079861;28;20227;-81
2022/01/31 06:02:57;;;;;;;17.40;5.23;;;1.80;99.90;;;;;;5083504;28;20222;-81
2022/01/31 06:05:24;;;;;;;24.00;5.17;;;1.80;99.90;;;;;;5087338;28;20226;-81
2022/01/31 06:07:51;;;;;;;24.83;5.33;;;1.80;99.90;;;;;;5088119;27;20816;-81
2022/01/31 06:10:18;;;;;;;20.87;5.37;;;1.80;99.90;;;;;;5084368;28;20242;-81
2022/01/31 06:12:45;;;;;;;20.00;4.80;;;1.80;99.90;;;;;;5080853;28;20225;-81
2022/01/31 06:15:13;;;;;;;18.37;5.53;;;1.90;99.90;;;;;;5070239;28;20422;-82
2022/01/31 06:17:40;;;;;;;23.97;4.47;;;1.80;99.90;;;;;;5077597;28;20231;-80
2022/01/31 06:20:08;;;;;;;17.27;5.20;;;1.90;99.90;;;;;;5081623;28;20340;-80
2022/01/31 06:22:34;;;;;;;29.20;5.70;;;1.90;99.90;;;;;;5089900;28;20572;-81
2022/01/31 06:25:01;;;;;;;22.97;5.87;;;1.90;99.90;;;;;;5075913;28;20317;-81
2022/01/31 06:27:34;;;;;;;22.00;6.07;;;1.80;99.90;;;;;;5083517;28;20274;-81
2022/01/31 06:30:01;;;;;;;20.67;5.53;;;1.80;99.90;;;;;;5081163;28;20280;-81
2022/01/31 06:32:30;;;;;;;22.80;4.97;;;1.80;99.90;;;;;;5081208;28;20731;-81
2022/01/31 06:34:57;;;;;;;25.10;5.37;;;1.80;99.90;;;;;;5081149;28;20784;-80
2022/01/31 06:37:24;;;;;;;29.70;6.03;;;1.70;99.90;;;;;;5086303;28;20324;-79
2022/01/31 06:39:50;;;;;;;31.43;5.97;;;1.70;99.90;;;;;;5083740;28;20919;-81
2022/01/31 06:42:17;;;;;;;26.10;6.53;;;1.60;99.90;;;;;;5084114;28;20245;-81
2022/01/31 06:44:44;;;;;;;31.47;6.53;;;1.60;99.90;;;;;;5083214;28;20238;-80
2022/01/31 06:47:11;;;;;;;25.37;6.17;;;1.60;99.90;;;;;;5078842;28;20317;-81
2022/01/31 06:49:39;;;;;;;28.17;5.07;;;1.60;99.90;;;;;;5084505;28;20231;-81
2022/01/31 06:52:07;;;;;;;24.80;6.67;;;1.50;99.90;;;;;;5080513;28;20245;-82
2022/01/31 06:54:33;;;;;;;25.00;5.87;;;1.50;99.90;;;;;;5087321;28;20311;-82
2022/01/31 06:57:01;;;;;;;28.03;6.40;;;1.40;99.90;;;;;;5086824;28;20214;-82
2022/01/31 06:59:28;;;;;;;25.63;6.30;;;1.40;99.90;;;;;;5085313;28;20287;-81
2022/01/31 07:01:55;;;;;;;30.20;6.43;;;1.40;99.90;;;;;;5081649;28;20714;-81
2022/01/31 07:04:21;;;;;;;22.43;5.67;;;1.30;99.90;;;;;;5074512;28;20734;-82
2022/01/31 07:06:50;;;;;;;21.83;5.27;;;1.40;99.90;;;;;;5081362;28;20288;-82
2022/01/31 07:09:16;;;;;;;27.53;6.37;;;1.30;99.90;;;;;;5084043;28;20321;-82
2022/01/31 07:11:43;;;;;;;25.30;5.70;;;1.30;99.90;;;;;;5076196;28;20223;-82
2022/01/31 07:14:29;;;;;;;26.47;5.90;;;1.20;99.90;;;;;;5077632;28;20231;-81
2022/01/31 07:16:56;;;;;;;30.13;4.97;;;1.20;99.90;;;;;;5079226;28;20466;-81
2022/01/31 07:19:27;;;;;;;27.07;5.53;;;1.20;99.90;;;;;;5079418;28;25026;-81
2022/01/31 07:21:55;;;;;;;30.33;5.30;;;1.20;99.90;;;;;;5077965;28;20235;-80
2022/01/31 07:24:30;;;;;;;30.53;6.70;;;1.10;99.90;;;;;;5072631;28;20233;-81
2022/01/31 07:26:57;;;;;;;23.37;6.07;;;1.10;99.90;;;;;;5080879;28;20233;-81
2022/01/31 07:29:24;;;;;;;26.37;5.30;;;1.10;99.90;;;;;;5090069;28;20241;-81
2022/01/31 07:31:52;;;;;;;25.43;5.77;;;1.00;99.90;;;;;;5076204;28;20241;-81
2022/01/31 07:34:20;;;;;;;29.37;5.53;;;1.10;99.90;;;;;;5075172;28;20301;-82
2022/01/31 07:36:47;;;;;;;29.33;6.40;;;1.10;99.90;;;;;;5082910;28;20227;-82
2022/01/31 07:39:16;;;;;;;40.93;6.27;;;1.10;99.90;;;;;;5082377;28;20231;-81
2022/01/31 07:41:43;;;;;;;30.73;6.07;;;1.00;99.90;;;;;;5081900;28;20248;-82
2022/01/31 07:44:11;;;;;;;22.70;6.13;;;1.00;99.90;;;;;;5079840;28;20781;-82
2022/01/31 07:46:38;;;;;;;31.70;6.27;;;1.10;99.90;;;;;;5096273;27;20327;-82
2022/01/31 07:49:06;;;;;;;29.23;5.97;;;1.10;99.90;;;;;;5075391;28;20719;-81
2022/01/31 07:51:34;;;;;;;26.27;5.60;;;1.10;99.90;;;;;;5076691;28;20235;-82
2022/01/31 07:54:01;;;;;;;27.67;7.10;;;1.10;99.90;;;;;;5071469;28;20387;-82
2022/01/31 07:56:31;;;;;;;35.00;6.57;;;1.10;99.90;;;;;;5081113;28;20259;-81
2022/01/31 07:58:58;;;;;;;35.00;6.57;;;1.10;99.90;;;;;;5098002;27;20267;-82
2022/01/31 08:01:26;;;;;;;28.33;6.20;;;1.10;99.90;;;;;;5082754;28;20252;-82
2022/01/31 08:03:53;;;;;;;30.50;6.27;;;1.10;99.90;;;;;;5081522;28;20226;-82
2022/01/31 08:06:20;;;;;;;29.53;5.90;;;1.10;99.90;;;;;;5081437;28;20226;-82
2022/01/31 08:08:46;;;;;;;25.13;6.17;;;1.20;99.90;;;;;;5080253;28;20333;-82
2022/01/31 08:11:14;;;;;;;32.27;6.80;;;1.20;99.90;;;;;;5085209;28;20318;-82
2022/01/31 08:13:42;;;;;;;27.17;6.10;;;1.20;99.90;;;;;;5081248;28;20231;-82
2022/01/31 08:16:13;;;;;;;26.60;6.67;;;1.20;99.90;;;;;;5083991;28;20350;-81
2022/01/31 08:18:41;;;;;;;110.50;11.43;;;1.20;99.90;;;;;;5072086;28;20235;-81
2022/01/31 08:21:10;;;;;;;27.67;5.97;;;1.20;99.90;;;;;;5082492;28;20231;-81
2022/01/31 08:23:37;;;;;;;48.23;8.37;;;1.20;99.90;;;;;;5077048;28;20313;-81
2022/01/31 08:26:05;;;;;;;47.73;8.03;;;1.20;99.90;;;;;;5081938;28;20292;-81
2022/01/31 08:28:37;;;;;;;53.47;8.07;;;1.20;99.90;;;;;;5079210;28;20797;-81
2022/01/31 08:31:13;;;;;;;28.27;5.93;;;1.20;99.90;;;;;;5079970;28;20321;-81
2022/01/31 08:33:44;;;;;;;29.27;5.43;;;1.30;99.90;;;;;;5076646;28;20847;-81
2022/01/31 08:36:12;;;;;;;38.37;7.27;;;1.30;99.90;;;;;;5076426;28;20241;-81
2022/01/31 08:38:41;;;;;;;43.87;7.10;;;1.40;99.90;;;;;;5078726;28;20227;-81
2022/01/31 08:41:08;;;;;;;50.93;7.17;;;1.40;99.90;;;;;;5083880;28;20965;-81
2022/01/31 08:43:36;;;;;;;46.40;7.07;;;1.40;99.90;;;;;;5079509;28;20228;-81
2022/01/31 08:46:06;;;;;;;33.17;6.43;;;1.50;99.90;;;;;;5077465;28;20242;-81
2022/01/31 08:48:33;;;;;;;30.23;6.80;;;1.40;99.90;;;;;;5073155;28;20391;-82
2022/01/31 08:51:00;;;;;;;30.67;6.20;;;1.50;99.90;;;;;;5083221;28;20242;-81
2022/01/31 08:53:27;;;;;;;24.27;5.80;;;1.60;99.90;;;;;;5093319;28;20330;-80
2022/01/31 08:55:55;;;;;;;28.33;5.97;;;1.60;99.90;;;;;;5081298;28;20230;-80
2022/01/31 08:58:23;;;;;;;23.57;6.50;;;1.60;99.90;;;;;;5086799;28;20258;-81
2022/01/31 09:00:58;;;;;;;24.60;5.80;;;1.70;99.90;;;;;;5084690;28;20254;-80
2022/01/31 09:03:44;;;;;;;25.47;6.20;;;1.70;99.90;;;;;;5073841;28;20247;-81
2022/01/31 09:06:12;;;;;;;24.17;6.53;;;1.80;99.90;;;;;;5083234;28;20848;-81
2022/01/31 09:08:39;;;;;;;23.43;6.37;;;1.80;99.90;;;;;;5081742;28;20757;-80
2022/01/31 09:11:08;;;;;;;33.67;6.57;;;1.80;99.90;;;;;;5076262;28;20320;-81
2022/01/31 09:13:35;;;;;;;24.90;6.10;;;1.90;99.90;;;;;;5079059;28;20726;-81
2022/01/31 09:16:02;;;;;;;29.53;7.00;;;1.90;99.90;;;;;;5079350;28;20233;-81
2022/01/31 09:18:30;;;;;;;32.10;6.57;;;2.00;99.90;;;;;;5074426;28;20226;-80
2022/01/31 09:20:58;;;;;;;25.57;6.07;;;2.00;99.90;;;;;;5080845;28;20262;-81
2022/01/31 09:23:25;;;;;;;24.03;6.27;;;2.10;99.90;;;;;;5097703;28;20226;-81
2022/01/31 09:25:52;;;;;;;24.33;5.93;;;2.10;99.90;;;;;;5073764;28;20225;-81
2022/01/31 09:28:19;;;;;;;26.70;6.40;;;2.10;99.90;;;;;;5084167;28;20315;-81
2022/01/31 09:30:47;;;;;;;25.70;6.30;;;2.20;99.90;;;;;;5080659;28;20323;-81
2022/01/31 09:33:15;;;;;;;62.83;8.27;;;2.20;99.90;;;;;;5083394;28;20230;-81
2022/01/31 09:35:43;;;;;;;19.13;5.77;;;2.20;99.90;;;;;;5079369;28;20301;-81
2022/01/31 09:38:12;;;;;;;20.57;5.77;;;2.20;99.90;;;;;;5077668;28;20265;-82
2022/01/31 09:40:40;;;;;;;23.00;6.10;;;2.30;99.90;;;;;;5084603;28;20867;-81
2022/01/31 09:43:40;;;;;;;30.27;6.73;;;2.30;99.90;;;;;;5085150;28;20299;-81
2022/01/31 09:46:31;;;;;;;23.10;5.50;;;2.40;99.90;;;;;;5080078;28;20218;-80
2022/01/31 09:48:58;;;;;;;21.13;5.47;;;2.40;99.90;;;;;;5078290;28;20355;-80
2022/01/31 09:51:27;;;;;;;22.33;6.10;;;2.40;99.90;;;;;;5080587;28;20246;-81
2022/01/31 09:53:58;;;;;;;19.23;5.40;;;2.50;99.90;;;;;;5081145;28;20572;-81
2022/01/31 09:56:27;;;;;;;19.13;4.97;;;2.50;99.90;;;;;;5083664;28;20226;-82
2022/01/31 09:58:56;;;;;;;21.23;5.37;;;2.50;99.90;;;;;;5097797;27;20254;-82
2022/01/31 10:01:27;;;;;;;21.57;6.03;;;2.50;99.90;;;;;;5084500;28;20236;-81
2022/01/31 10:03:56;;;;;;;21.50;6.33;;;2.50;99.90;;;;;;5080561;28;20236;-82
2022/01/31 10:06:24;;;;;;;22.50;6.20;;;2.50;99.90;;;;;;5081206;28;20692;-81
2022/01/31 10:09:05;;;;;;;27.13;7.27;;;2.50;99.90;;;;;;5083800;28;20408;-81
2022/01/31 10:11:40;;;;;;;16.83;5.73;;;2.60;99.90;;;;;;5082207;28;20226;-81
2022/01/31 10:17:00;;;;;;;14.80;5.20;;;2.60;99.90;;;;;;5083864;28;20319;-81
2022/01/31 10:19:27;;;;;;;16.43;5.63;;;2.70;99.90;;;;;;5087027;28;20233;-81
2022/01/31 10:22:01;;;;;;;18.67;5.10;;;2.80;99.90;;;;;;5080469;28;20227;-81
2022/01/31 10:24:33;;;;;;;20.37;6.13;;;2.80;99.90;;;;;;5084368;28;20236;-81
2022/01/31 10:27:07;;;;;;;15.43;5.67;;;3.00;99.90;;;;;;5080734;28;20230;-81
2022/01/31 10:29:35;;;;;;;16.07;6.27;;;3.00;99.90;;;;;;5080875;28;20226;-81
2022/01/31 10:32:06;;;;;;;19.70;5.53;;;3.00;99.90;;;;;;5075758;28;20349;-81
2022/01/31 10:34:36;;;;;;;12.60;4.83;;;3.10;99.90;;;;;;5086027;28;20358;-81
2022/01/31 10:37:05;;;;;;;17.10;6.47;;;3.20;99.90;;;;;;5083504;28;20230;-81
2022/01/31 10:45:30;;;;;;;14.17;5.23;;;3.40;99.90;;;;;;5089511;28;20324;-81
2022/01/31 10:51:52;;;;;;;13.47;5.70;;;3.40;99.90;;;;;;5087237;28;20292;-81
2022/01/31 10:54:35;;;;;;;13.83;4.90;;;3.50;99.90;;;;;;5080502;28;20957;-81
2022/01/31 10:57:05;;;;;;;7.63;4.30;;;3.50;99.90;;;;;;5082134;28;20239;-80
2022/01/31 10:59:34;;;;;;;11.57;4.57;;;3.60;99.90;;;;;;5084741;28;20225;-81
2022/01/31 11:02:04;;;;;;;11.77;4.10;;;3.50;99.90;;;;;;5083315;28;20262;-81
2022/01/31 11:04:32;;;;;;;9.97;4.60;;;3.50;99.90;;;;;;5081192;28;20237;-80
2022/01/31 11:07:01;;;;;;;9.10;4.63;;;3.50;99.90;;;;;;5084871;28;20236;-80
2022/01/31 11:09:31;;;;;;;11.17;5.10;;;3.40;99.90;;;;;;5080297;28;20608;-80
2022/01/31 11:11:58;;;;;;;10.13;5.00;;;3.40;99.90;;;;;;5073487;28;20227;-81
2022/01/31 11:14:26;;;;;;;6.97;4.07;;;3.50;99.90;;;;;;5084083;28;20238;-81
2022/01/31 11:16:55;;;;;;;9.40;4.53;;;3.50;99.90;;;;;;5088022;28;20710;-81
2022/01/31 11:19:30;;;;;;;10.03;4.90;;;3.60;99.90;;;;;;5085939;28;20221;-81
2022/01/31 11:22:01;;;;;;;12.93;5.27;;;3.60;99.90;;;;;;5091665;28;20794;-81
2022/01/31 11:24:32;;;;;;;8.50;4.30;;;3.70;99.90;;;;;;5083642;28;20220;-82
2022/01/31 11:27:04;;;;;;;10.80;5.10;;;3.70;99.90;;;;;;5094178;28;20228;-81
2022/01/31 11:29:35;;;;;;;7.87;4.07;;;3.80;99.90;;;;;;5088230;28;20259;-81
2022/01/31 11:32:03;;;;;;;7.37;4.17;;;3.80;99.90;;;;;;5088797;28;20295;-81
2022/01/31 11:34:31;;;;;;;6.50;3.90;;;3.80;99.90;;;;;;5086759;28;20253;-81
2022/01/31 11:36:58;;;;;;;5.70;3.73;;;4.00;99.90;;;;;;5088293;28;20233;-81
2022/01/31 11:39:25;;;;;;;7.13;3.60;;;4.00;99.90;;;;;;5080969;28;21097;-81
2022/01/31 11:41:55;;;;;;;6.97;3.83;;;3.90;99.90;;;;;;5090852;28;20741;-81
2022/01/31 11:44:29;;;;;;;6.70;4.10;;;3.80;99.90;;;;;;5086111;28;20223;-81
2022/01/31 11:46:58;;;;;;;10.53;4.70;;;3.80;99.90;;;;;;5083721;28;20233;-80
2022/01/31 11:49:25;;;;;;;9.50;4.97;;;3.70;99.90;;;;;;5078398;28;20229;-80
2022/01/31 11:52:05;;;;;;;8.07;5.20;;;3.60;99.90;;;;;;5085306;28;20284;-80
2022/01/31 11:54:31;;;;;;;8.80;5.30;;;3.60;99.90;;;;;;5077680;28;20285;-80
2022/01/31 11:56:59;;;;;;;9.57;4.70;;;3.50;99.90;;;;;;5082734;28;20230;-80
2022/01/31 11:59:26;;;;;;;10.63;5.23;;;3.50;99.90;;;;;;5081077;28;20242;-80
2022/01/31 12:01:58;;;;;;;11.10;5.40;;;3.50;99.90;;;;;;5081238;28;20329;-80
2022/01/31 12:04:33;;;;;;;11.20;4.93;;;3.50;99.90;;;;;;5078530;28;20245;-80
2022/01/31 12:07:00;;;;;;;11.00;5.10;;;3.50;99.90;;;;;;5086167;28;20234;-80
2022/01/31 12:09:28;;;;;;;12.27;5.83;;;3.50;99.90;;;;;;5085649;28;20233;-80
2022/01/31 12:12:01;;;;;;;9.37;5.50;;;3.50;99.90;;;;;;5084487;28;20965;-80
2022/01/31 12:14:42;;;;;;;10.23;5.07;;;3.50;99.90;;;;;;5084369;28;20320;-80
2022/01/31 12:17:52;;;;;;;12.80;5.67;;;3.50;99.90;;;;;;5085772;28;21087;-80
2022/01/31 12:21:59;;;;;;;9.70;5.40;;;3.50;99.90;;;;;;5081981;28;20318;-80
2022/01/31 12:23:40;;;;;;;11.80;5.87;;;3.40;99.90;;;;;;5083656;28;20308;-80
2022/01/31 12:26:29;;;;;;;11.73;6.10;;;3.50;99.90;;;;;;5084070;28;20220;-80
2022/01/31 12:28:56;;;;;;;12.17;6.10;;;3.50;99.90;;;;;;5080775;28;20938;-80
2022/01/31 12:31:24;;;;;;;14.07;6.67;;;3.50;99.90;;;;;;5083086;28;20242;-80
2022/01/31 12:33:51;;;;;;;13.20;6.33;;;3.60;99.90;;;;;;5079063;28;20265;-80
2022/01/31 12:36:47;;;;;;;10.10;5.40;;;3.60;99.90;;;;;;5081355;28;20233;-80
2022/01/31 12:40:04;;;;;;;12.77;6.10;;;3.70;99.90;;;;;;5079699;28;20232;-80
2022/01/31 12:42:54;;;;;;;8.20;5.13;;;3.70;99.90;;;;;;5079872;28;20338;-80
2022/01/31 12:45:22;;;;;;;12.13;5.27;;;3.80;99.90;;;;;;5082268;28;20792;-80
2022/01/31 12:48:12;;;;;;;8.33;5.10;;;3.80;99.90;;;;;;5085346;28;20232;-79
2022/01/31 12:50:41;;;;;;;8.77;5.77;;;3.80;99.90;;;;;;5086570;28;20231;-80
2022/01/31 12:53:40;;;;;;;12.90;6.07;;;3.80;99.90;;;;;;5080129;28;20230;-80
2022/01/31 12:56:11;;;;;;;10.90;5.70;;;3.70;99.90;;;;;;5081204;28;20231;-80
2022/01/31 12:58:39;;;;;;;15.90;6.20;;;3.80;99.90;;;;;;5079584;28;20223;-80
2022/01/31 13:01:09;;;;;;;14.27;6.13;;;3.70;99.90;;;;;;5080967;28;20245;-80
2022/01/31 13:03:37;;;;;;;9.30;5.87;;;3.70;99.90;;;;;;5082796;28;20223;-80
2022/01/31 13:06:04;;;;;;;12.83;6.27;;;3.70;99.90;;;;;;5082645;28;20230;-80
2022/01/31 13:08:40;;;;;;;9.17;5.90;;;3.70;99.90;;;;;;5084625;28;20225;-80
2022/01/31 13:11:14;;;;;;;8.20;5.50;;;3.70;99.90;;;;;;5079712;28;20237;-80
2022/01/31 13:13:41;;;;;;;11.03;5.63;;;3.70;99.90;;;;;;5079877;28;20230;-79
2022/01/31 13:16:10;;;;;;;14.23;6.50;;;3.70;99.90;;;;;;5088373;28;20262;-82